Latest Weather Observations for Hughenden

IDQ60801

Issued at 9:02 pm EST Thursday 18 December 2014 (issued every 30 minutes, with the page automatically refreshed every 10 minutes)

About weather observations | Map of weather stations | Latest weather observations for QLD | Other Formats
Station Details ID: 030022 Name: HUGHENDEN AIRPORT Lat: -20.82 Lon: 144.23 Height: 316.4 m
Data from the previous 72 hours. | See also: Recent months at Hughenden
Date/Time
EST
Temp
°C
App
Temp
°C
Dew
Point
Rel
Hum
%
Delta-T
°C
Wind Press
QNH
hPa
Press
MSL
hPa
Rain
since 9 am
mm
Dir
 
Spd
km/h
Gust
km/h
Spd
kts
Gust
kts
18/09:00pm 25.6 27.8 19.7 70 3.9 SSW 7 13 4 7 1014.7 1012.3 0.2
18/08:30pm 25.8 26.6 19.0 66 4.4 W 13 20 7 11 1014.3 1011.9 0.2
18/08:00pm 25.6 26.2 18.5 65 4.6 W 13 20 7 11 1013.7 1011.3 0.2
18/07:30pm 26.2 25.1 17.3 58 5.6 NNW 19 22 10 12 1013.6 1011.2 0.0
18/07:00pm 28.4 26.8 15.0 44 8.3 N 17 20 9 11 1013.0 1010.6 0.0
18/06:30pm 28.3 27.4 14.9 44 8.2 WSW 13 19 7 10 1012.7 1010.3 0.0
18/06:00pm 28.4 27.1 15.7 46 7.9 SW 17 24 9 13 1012.1 1009.7 0.0
18/05:30pm 28.7 25.9 16.3 47 7.8 WSW 26 35 14 19 1011.3 1008.9 0.0
18/05:04pm 28.7 25.2 19.6 58 6.0 WSW 37 56 20 30 1009.6 1007.2 0.0
18/05:00pm 28.7 25.0 19.9 59 5.8 WSW 39 56 21 30 1009.7 1007.3 0.0
18/04:33pm 31.0 28.9 19.7 51 7.5 WSW 30 50 16 27 1009.2 1006.8 0.0
18/04:30pm 31.0 28.9 19.7 51 7.5 WSW 30 43 16 23 1009.1 1006.7 0.0
18/04:00pm 30.7 27.3 17.7 45 8.4 SW 32 43 17 23 1009.0 1006.6 0.0
18/03:30pm 34.3 32.7 17.5 36 10.9 W 22 30 12 16 1007.8 1005.4 0.0
18/03:00pm 35.2 34.0 16.0 31 12.3 WNW 17 22 9 12 1007.5 1005.0 0.0
18/02:30pm 35.7 33.9 15.9 30 12.7 WNW 20 32 11 17 1007.7 1005.3 0.0
18/02:00pm 36.3 35.6 17.4 32 12.4 NW 17 22 9 12 1008.1 1005.7 0.0
18/01:30pm 35.3 34.1 16.1 32 12.3 WNW 17 22 9 12 1009.1 1006.7 0.0
18/01:00pm 34.6 35.2 17.8 37 11.0 WSW 11 15 6 8 1009.6 1007.2 0.0
18/12:30pm 34.8 36.6 18.4 38 10.8 SW 6 11 3 6 1009.7 1007.3 0.0
18/12:00pm 34.4 35.0 17.6 37 11.0 WNW 11 19 6 10 1009.9 1007.5 0.0
18/11:30am 33.2 33.1 17.8 40 10.0 NW 15 26 8 14 1010.3 1007.8 0.0
18/11:00am 33.3 33.6 17.9 40 10.1 NNW 13 20 7 11 1010.5 1008.0 0.0
18/10:30am 32.6 31.6 18.8 44 9.1 NW 22 28 12 15 1010.7 1008.3 0.0
18/10:00am 32.0 31.4 18.9 45 8.6 NNW 20 28 11 15 1010.9 1008.5 0.0
18/09:30am 30.9 31.3 18.9 48 7.9 NNW 15 22 8 12 1011.1 1008.7 0.0
18/09:00am 29.8 29.9 19.2 53 7.0 N 17 22 9 12 1011.3 1008.9 4.4
18/08:30am 29.1 29.9 19.1 54 6.6 N 13 19 7 10 1011.3 1008.9 4.4
18/08:00am 27.2 29.8 20.0 64 4.8 NNW 6 9 3 5 1011.2 1008.8 4.2
18/07:30am 26.2 28.5 19.8 68 4.2 W 7 9 4 5 1010.9 1008.5 4.2
18/07:00am 25.8 28.2 19.7 69 4.0 NW 6 9 3 5 1010.5 1008.0 4.2
18/06:30am 25.4 26.2 19.8 71 3.7 NNW 15 19 8 10 1010.1 1007.6 4.2
18/06:00am 25.0 26.4 19.6 72 3.5 N 11 13 6 7 1009.6 1007.2 4.2
18/05:30am 24.6 26.6 19.9 75 3.1 NNW 9 11 5 6 1009.5 1007.1 4.2
18/05:00am 25.0 28.1 19.6 72 3.5 NW 2 11 1 6 1009.2 1006.8 4.2
18/04:30am 25.3 27.5 19.2 69 4.0 NNE 6 9 3 5 1009.1 1006.7 4.2
18/04:00am 25.7 26.3 18.6 65 4.6 SE 13 20 7 11 1008.7 1006.3 4.2
18/03:30am 26.0 25.2 18.4 63 4.9 SSE 20 30 11 16 1009.0 1006.6 4.2
18/03:00am 25.6 25.6 19.0 67 4.3 SSW 17 37 9 20 1008.1 1005.7 4.2
18/02:30am 26.3 27.8 18.9 63 4.8 ENE 9 13 5 7 1007.2 1004.7 4.2
18/02:00am 25.4 27.9 20.2 73 3.4 SE 7 11 4 6 1007.4 1004.9 4.2
18/01:30am 25.5 27.3 19.6 70 3.9 E 9 11 5 6 1007.6 1005.1 4.2
18/01:00am 25.3 26.5 19.9 72 3.5 ENE 13 15 7 8 1007.9 1005.5 4.2
18/12:30am 25.3 25.4 19.2 69 4.0 NE 17 20 9 11 1008.1 1005.7 4.2
18/12:00am 25.1 25.6 19.2 70 3.8 NE 15 19 8 10 1008.2 1005.8 4.2
 
Date/Time
EST
Temp
°C
App
Temp
°C
Dew
Point
Rel
Hum
%
Delta-T
°C
Wind Press
QNH
hPa
Press
MSL
hPa
Rain
since 9 am
mm
Dir
 
Spd
km/h
Gust
km/h
Spd
kts
Gust
kts
17/11:30pm 25.3 25.9 19.4 70 3.8 NE 15 19 8 10 1008.5 1006.1 4.2
17/11:00pm 24.8 24.5 19.2 71 3.6 NNE 19 26 10 14 1008.9 1006.5 4.2
17/10:30pm 24.5 22.3 18.7 70 3.7 N 28 39 15 21 1009.5 1007.1 4.0
17/10:00pm 24.5 22.7 19.6 74 3.2 N 28 35 15 19 1009.9 1007.5 3.4
17/09:30pm 24.4 23.8 19.7 75 3.1 N 22 28 12 15 1010.5 1008.0 2.8
17/09:00pm 24.8 22.6 18.7 69 3.9 N 28 39 15 21 1010.4 1007.9 2.4
17/08:30pm 25.1 25.4 20.8 77 2.9 NNE 20 26 11 14 1010.9 1008.5 1.2
17/08:00pm 25.1 26.4 20.1 74 3.3 NW 13 17 7 9 1011.0 1008.6 0.6
17/07:30pm 26.8 28.0 19.9 66 4.5 N 13 22 7 12 1010.2 1007.7 0.2
17/07:00pm 27.2 27.5 18.8 60 5.5 NW 15 24 8 13 1009.9 1007.5 0.2
17/06:43pm 28.0 26.3 18.1 55 6.4 WNW 24 46 13 25 1009.2 1006.8 0.0
17/06:41pm 26.9 25.6 19.0 62 5.1 NW 24 33 13 18 1009.2 1006.8 0.0
17/06:30pm 26.8 24.4 19.2 63 5.0 N 30 41 16 22 1007.1 1004.6 0.0
17/06:00pm 27.2 26.4 18.5 59 5.6 N 20 30 11 16 1006.0 1003.6 0.0
17/05:46pm 26.5 23.9 19.6 66 4.5 NW 32 50 17 27 1006.9 1004.4 0.0
17/05:37pm 26.4 23.7 19.3 65 4.6 NW 32 48 17 26 1007.2 1004.7 0.0
17/05:30pm 26.5 23.7 19.1 64 4.8 W 32 48 17 26 1007.5 1005.0 0.0
17/05:27pm 26.6 23.3 19.2 64 4.8 W 35 48 19 26 1007.4 1004.9 0.0
17/05:14pm 28.3 23.4 17.2 51 7.1 SW 39 59 21 32 1006.3 1003.9 0.0
17/05:11pm 29.5 24.8 17.7 49 7.6 SW 39 54 21 29 1006.3 1003.9 0.0
17/05:00pm 32.5 26.8 14.1 32 11.4 SSW 37 57 20 31 1006.2 1003.8 0.0
17/04:44pm 35.3 32.8 12.3 25 14.0 S 17 48 9 26 1004.8 1002.3 0.0
17/04:30pm 38.0 37.5 13.9 24 15.1 SW 9 17 5 9 1004.2 1001.7 0.0
17/04:00pm 38.0 36.3 12.6 22 15.7 W 13 20 7 11 1004.3 1001.8 0.0
17/03:30pm 38.9 36.9 14.0 23 15.7 WNW 17 20 9 11 1004.4 1001.9 0.0
17/03:00pm 38.2 36.5 14.7 24 14.9 W 17 28 9 15 1005.2 1002.8 0.0
17/02:30pm 37.6 36.3 14.8 25 14.4 WNW 15 24 8 13 1005.8 1003.4 0.0
17/02:00pm 37.6 36.3 14.8 25 14.5 WNW 15 32 8 17 1006.4 1004.0 0.0
17/01:30pm 38.1 36.6 16.4 27 14.1 WNW 19 30 10 16 1006.8 1004.3 0.0
17/01:00pm 38.0 36.3 15.7 26 14.4 WNW 19 30 10 16 1007.2 1004.7 0.0
17/12:30pm 37.1 36.5 16.6 29 13.3 NW 15 24 8 13 1007.7 1005.3 0.0
17/12:00pm 36.7 36.0 17.3 31 12.7 NW 17 28 9 15 1008.2 1005.8 0.0
17/11:30am 36.1 35.0 17.7 33 12.1 WNW 20 32 11 17 1008.6 1006.2 0.0
17/11:00am 35.6 33.7 16.8 32 12.2 NW 22 35 12 19 1008.9 1006.5 0.0
17/10:30am 35.1 34.0 17.3 34 11.6 NW 19 26 10 14 1009.2 1006.8 0.0
17/10:00am 34.1 32.8 17.3 36 10.9 N 20 30 11 16 1009.3 1006.9 0.0
17/09:30am 33.6 32.7 18.1 39 10.2 NNW 20 28 11 15 1009.5 1007.1 0.0
17/09:00am 32.0 30.3 18.2 43 9.0 NNW 24 30 13 16 1009.5 1007.1 0.0
17/08:30am 31.5 30.7 18.5 46 8.5 N 20 28 11 15 1009.4 1007.0 0.0
17/08:00am 30.6 30.7 18.3 47 8.0 N 15 20 8 11 1009.8 1007.4 0.0
17/07:30am 29.5 31.1 18.3 51 7.3 N 7 11 4 6 1010.3 1007.8 0.0
17/07:00am 28.4 30.0 19.1 57 6.1 ENE 9 11 5 6 1010.1 1007.6 0.0
17/06:30am 27.6 29.2 19.1 59 5.5 ENE 9 9 5 5 1009.6 1007.2 0.0
17/06:00am 26.7 29.9 18.8 62 5.1 CALM 0 0 0 0 1009.3 1006.9 0.0
17/05:30am 26.6 29.3 18.7 62 5.1 SW 2 9 1 5 1008.8 1006.4 0.0
17/05:00am 27.3 28.3 18.6 59 5.6 NE 11 13 6 7 1007.9 1005.5 0.0
17/04:30am 27.7 29.0 18.4 57 6.0 NNE 9 9 5 5 1007.4 1004.9 0.0
17/04:00am 28.1 28.9 18.2 55 6.4 NNE 11 15 6 8 1007.0 1004.5 0.0
17/03:30am 28.5 29.0 18.3 54 6.6 NNE 13 17 7 9 1006.4 1004.0 0.0
17/03:00am 28.8 28.4 18.0 52 7.0 NE 17 22 9 12 1006.1 1003.7 0.0
17/02:30am 29.1 28.3 17.9 50 7.2 NNE 19 24 10 13 1005.9 1003.5 0.0
17/02:00am 29.2 28.7 17.7 50 7.4 NE 17 20 9 11 1006.1 1003.7 0.0
17/01:30am 29.7 28.6 17.2 47 8.0 NE 19 26 10 14 1006.2 1003.8 0.0
17/01:00am 29.9 28.9 15.6 42 9.0 NE 15 19 8 10 1006.5 1004.1 0.0
17/12:30am 30.3 28.6 13.6 36 10.1 NNE 15 17 8 9 1006.8 1004.3 0.0
17/12:00am 30.5 28.2 10.5 29 11.6 NNE 13 19 7 10 1007.2 1004.7 0.0
 
Date/Time
EST
Temp
°C
App
Temp
°C
Dew
Point
Rel
Hum
%
Delta-T
°C
Wind Press
QNH
hPa
Press
MSL
hPa
Rain
since 9 am
mm
Dir
 
Spd
km/h
Gust
km/h
Spd
kts
Gust
kts
16/11:30pm 30.8 28.7 9.6 27 12.1 N 11 15 6 8 1007.3 1004.8 0.0
16/11:00pm 31.9 29.3 9.4 25 12.9 NE 13 19 7 10 1007.3 1004.8 0.0
16/10:30pm 33.3 30.2 8.7 22 14.0 ENE 15 22 8 12 1007.3 1004.8 0.0
16/10:00pm 34.1 30.0 8.0 20 14.8 E 19 26 10 14 1007.2 1004.7 0.0
16/09:30pm 34.1 30.4 8.0 20 14.8 E 17 20 9 11 1007.0 1004.5 0.0
16/09:00pm 34.5 31.3 8.3 20 15.0 E 15 19 8 10 1006.9 1004.4 0.0
16/08:30pm 33.0 30.9 9.7 24 13.5 E 11 15 6 8 1006.6 1004.2 0.0
16/08:00pm 32.9 31.4 12.0 28 12.5 E 11 11 6 6 1006.5 1004.1 0.0
16/07:30pm 35.5 34.2 11.2 23 14.5 ENE 9 9 5 5 1006.2 1003.8 0.0
16/07:00pm 37.4 36.3 9.9 19 16.3 NNE 6 7 3 4 1005.9 1003.5 0.0
16/06:30pm 39.3 39.5 10.6 18 17.3 CALM 0 0 0 0 1005.6 1003.2 0.0
16/06:00pm 39.3 38.8 10.6 18 17.3 W 4 7 2 4 1005.4 1003.0 0.0
16/05:30pm 39.0 37.1 7.7 15 18.0 SE 7 13 4 7 1005.3 1002.9 0.0
16/05:00pm 39.1 37.1 8.7 16 17.8 WNW 9 11 5 6 1005.3 1002.9 0.0
16/04:30pm 39.1 37.0 9.6 17 17.5 WSW 11 17 6 9 1005.4 1003.0 0.0
16/04:00pm 39.6 38.7 10.8 18 17.4 NNW 6 11 3 6 1005.6 1003.2 0.0
16/03:30pm 38.6 36.9 10.0 18 17.0 W 9 15 5 8 1005.8 1003.4 0.0
16/03:00pm 38.2 37.1 10.5 19 16.6 SE 7 11 4 6 1006.2 1003.8 0.0
16/02:30pm 38.9 37.2 11.1 19 16.8 SSW 11 26 6 14 1006.8 1004.3 0.0
16/02:00pm 38.0 36.3 11.1 20 16.2 SSW 11 17 6 9 1007.4 1004.9 0.0
16/01:30pm 37.3 35.4 10.6 20 15.9 SW 11 20 6 11 1007.9 1005.5 0.0
16/01:00pm 37.4 35.9 10.7 20 16.0 WSW 9 19 5 10 1008.5 1006.1 0.0
16/12:30pm 36.3 35.2 11.9 23 14.8 NW 9 24 5 13 1008.8 1006.4 0.0
16/12:00pm 35.8 34.5 11.4 23 14.7 SSW 9 17 5 9 1009.4 1007.0 0.0
16/11:30am 35.3 34.1 12.9 26 13.7 WNW 11 17 6 9 1010.1 1007.6 0.0
16/11:00am 35.2 34.4 13.9 27 13.2 NNW 11 19 6 10 1010.6 1008.2 0.0
16/10:30am 34.4 33.3 14.3 30 12.5 NNW 13 24 7 13 1011.0 1008.6 0.0
16/10:00am 33.8 33.1 15.3 33 11.7 N 13 20 7 11 1011.1 1008.7 0.0
16/09:30am 33.4 31.8 14.9 32 11.6 N 17 22 9 12 1011.4 1009.0 0.0
16/09:00am 32.4 31.4 16.7 39 10.1 N 17 24 9 13 1011.5 1009.1 0.0
16/08:30am 30.6 29.6 16.6 43 8.9 NNE 17 20 9 11 1011.5 1009.1 0.0
16/08:00am 29.7 28.4 17.2 47 8.0 NE 20 26 11 14 1011.3 1008.9 0.0
16/07:30am 28.5 28.0 17.7 52 6.9 NE 17 20 9 11 1011.2 1008.8 0.0
16/07:00am 27.4 27.2 18.4 58 5.8 NE 17 24 9 13 1010.9 1008.5 0.0
16/06:30am 26.7 26.5 18.6 61 5.2 ENE 17 20 9 11 1010.5 1008.0 0.0
16/06:00am 26.0 26.1 18.4 63 4.9 ENE 15 20 8 11 1009.9 1007.5 0.0
16/05:30am 25.6 26.1 18.3 64 4.7 ENE 13 15 7 8 1009.5 1007.1 0.0
16/05:00am 25.9 26.4 18.3 63 4.9 ENE 13 17 7 9 1009.1 1006.7 0.0
16/04:30am 26.3 27.5 18.2 61 5.2 ENE 9 15 5 8 1008.8 1006.4 0.0
16/04:00am 26.8 26.3 17.8 57 5.8 ENE 17 22 9 12 1008.1 1005.7 0.0
16/03:30am 27.2 26.4 17.1 54 6.4 ENE 17 20 9 11 1008.3 1005.9 0.0
16/03:00am 27.8 26.8 16.7 50 7.0 ENE 17 22 9 12 1008.3 1005.9 0.0
16/02:30am 28.0 26.8 15.0 45 8.0 ENE 15 19 8 10 1008.3 1005.9 0.0
16/02:00am 27.3 26.0 12.5 40 8.7 E 11 17 6 9 1008.4 1006.0 0.0
16/01:30am 28.5 26.3 12.0 36 9.7 ENE 15 19 8 10 1008.5 1006.1 0.0
16/01:00am 29.1 25.7 11.2 33 10.4 ENE 20 24 11 13 1008.8 1006.4 0.0
16/12:30am 29.4 26.6 11.5 33 10.5 ENE 17 22 9 12 1008.9 1006.5 0.0
16/12:00am 30.1 26.7 10.6 30 11.3 ENE 19 28 10 15 1009.3 1006.9 0.0
 
Date/Time
EST
Temp
°C
App
Temp
°C
Dew
Point
Rel
Hum
%
Delta-T
°C
Wind Press
QNH
hPa
Press
MSL
hPa
Rain
since 9 am
mm
Dir
 
Spd
km/h
Gust
km/h
Spd
kts
Gust
kts
15/11:30pm 29.5 26.9 10.6 31 10.9 E 15 20 8 11 1009.6 1007.2 0.0
15/11:00pm 29.3 27.4 10.4 31 10.9 E 11 13 6 7 1009.8 1007.4 0.0
15/10:30pm 29.5 26.9 10.6 31 10.9 ESE 15 17 8 9 1009.7 1007.3 0.0
15/10:00pm 30.0 27.9 11.0 31 11.1 ESE 13 19 7 10 1009.7 1007.3 0.0
15/09:30pm 30.3 27.3 10.8 30 11.3 ESE 17 20 9 11 1009.3 1006.9 0.0

Other Formats:

Comma delimited format used in spreadsheet applications
http://www.bom.gov.au/fwo/IDQ60801/IDQ60801.94343.axf

JavaScript Object Notation format (JSON) in row-major order
http://www.bom.gov.au/fwo/IDQ60801/IDQ60801.94343.json